sensor_id;sensor_type;location;lat;lon;timestamp;temperature;humidity
7159;DHT22;63175;52.374;13.132;2024-02-04T00:01:01;8.30;99.90
7159;DHT22;63175;52.374;13.132;2024-02-04T00:03:28;8.20;99.90
7159;DHT22;63175;52.374;13.132;2024-02-04T00:05:55;8.20;99.90
7159;DHT22;63175;52.374;13.132;2024-02-04T00:08:21;8.20;99.90
7159;DHT22;63175;52.374;13.132;2024-02-04T00:10:48;8.20;99.90
7159;DHT22;63175;52.374;13.132;2024-02-04T00:13:15;8.10;99.90
7159;DHT22;63175;52.374;13.132;2024-02-04T00:15:42;8.10;99.90
7159;DHT22;63175;52.374;13.132;2024-02-04T00:18:10;8.10;99.90
7159;DHT22;63175;52.374;13.132;2024-02-04T00:20:37;8.10;99.90
7159;DHT22;63175;52.374;13.132;2024-02-04T00:23:04;8.10;99.90
7159;DHT22;63175;52.374;13.132;2024-02-04T00:25:31;8.10;99.90
7159;DHT22;63175;52.374;13.132;2024-02-04T00:27:57;8.10;99.90
7159;DHT22;63175;52.374;13.132;2024-02-04T00:30:24;8.10;99.90
7159;DHT22;63175;52.374;13.132;2024-02-04T00:32:52;8.00;99.90
7159;DHT22;63175;52.374;13.132;2024-02-04T00:35:20;8.00;99.90
7159;DHT22;63175;52.374;13.132;2024-02-04T00:37:47;7.90;99.90
7159;DHT22;63175;52.374;13.132;2024-02-04T00:40:14;7.90;99.90
7159;DHT22;63175;52.374;13.132;2024-02-04T00:42:41;8.00;99.90
7159;DHT22;63175;52.374;13.132;2024-02-04T00:45:08;8.00;99.90
7159;DHT22;63175;52.374;13.132;2024-02-04T00:47:35;7.90;99.90
7159;DHT22;63175;52.374;13.132;2024-02-04T00:50:02;7.90;99.90
7159;DHT22;63175;52.374;13.132;2024-02-04T00:52:30;7.90;99.90
7159;DHT22;63175;52.374;13.132;2024-02-04T00:54:57;7.90;99.90
7159;DHT22;63175;52.374;13.132;2024-02-04T00:57:24;7.80;99.90
7159;DHT22;63175;52.374;13.132;2024-02-04T00:59:51;7.90;99.90
7159;DHT22;63175;52.374;13.132;2024-02-04T01:02:18;7.80;99.90
7159;DHT22;63175;52.374;13.132;2024-02-04T01:04:45;7.80;99.90
7159;DHT22;63175;52.374;13.132;2024-02-04T01:07:11;7.80;99.90
7159;DHT22;63175;52.374;13.132;2024-02-04T01:09:39;7.80;99.90
7159;DHT22;63175;52.374;13.132;2024-02-04T01:12:07;7.80;99.90
7159;DHT22;63175;52.374;13.132;2024-02-04T01:14:34;7.80;99.90
7159;DHT22;63175;52.374;13.132;2024-02-04T01:17:01;7.80;99.90
7159;DHT22;63175;52.374;13.132;2024-02-04T01:19:28;7.70;99.90
7159;DHT22;63175;52.374;13.132;2024-02-04T01:21:55;7.60;99.90
7159;DHT22;63175;52.374;13.132;2024-02-04T01:24:23;7.60;99.90
7159;DHT22;63175;52.374;13.132;2024-02-04T01:26:52;7.60;99.90
7159;DHT22;63175;52.374;13.132;2024-02-04T01:29:18;7.60;99.90
7159;DHT22;63175;52.374;13.132;2024-02-04T01:31:45;7.50;99.90
7159;DHT22;63175;52.374;13.132;2024-02-04T01:34:12;7.60;99.90
7159;DHT22;63175;52.374;13.132;2024-02-04T01:36:39;7.50;99.90
7159;DHT22;63175;52.374;13.132;2024-02-04T01:39:06;7.50;99.90
7159;DHT22;63175;52.374;13.132;2024-02-04T01:41:33;7.50;99.90
7159;DHT22;63175;52.374;13.132;2024-02-04T01:44:01;7.40;99.90
7159;DHT22;63175;52.374;13.132;2024-02-04T01:46:28;7.40;99.90
7159;DHT22;63175;52.374;13.132;2024-02-04T01:48:55;7.40;99.90
7159;DHT22;63175;52.374;13.132;2024-02-04T01:51:22;7.30;99.90
7159;DHT22;63175;52.374;13.132;2024-02-04T01:53:49;7.30;99.90
7159;DHT22;63175;52.374;13.132;2024-02-04T01:56:17;7.30;99.90
7159;DHT22;63175;52.374;13.132;2024-02-04T01:58:44;7.40;99.90
7159;DHT22;63175;52.374;13.132;2024-02-04T02:01:14;7.30;99.90
7159;DHT22;63175;52.374;13.132;2024-02-04T02:03:41;7.30;99.90
7159;DHT22;63175;52.374;13.132;2024-02-04T02:06:08;7.30;99.90
7159;DHT22;63175;52.374;13.132;2024-02-04T02:08:35;7.30;99.90
7159;DHT22;63175;52.374;13.132;2024-02-04T02:11:05;7.30;99.90
7159;DHT22;63175;52.374;13.132;2024-02-04T02:13:35;7.30;99.90
7159;DHT22;63175;52.374;13.132;2024-02-04T02:16:07;7.40;99.90
7159;DHT22;63175;52.374;13.132;2024-02-04T02:18:41;7.40;99.90
7159;DHT22;63175;52.374;13.132;2024-02-04T02:21:26;7.40;99.90
7159;DHT22;63175;52.374;13.132;2024-02-04T02:24:04;7.40;99.90
7159;DHT22;63175;52.374;13.132;2024-02-04T02:26:35;7.40;99.90
7159;DHT22;63175;52.374;13.132;2024-02-04T02:29:04;7.40;99.90
7159;DHT22;63175;52.374;13.132;2024-02-04T02:31:31;7.40;99.90
7159;DHT22;63175;52.374;13.132;2024-02-04T02:33:58;7.40;99.90
7159;DHT22;63175;52.374;13.132;2024-02-04T02:36:29;7.40;99.90
7159;DHT22;63175;52.374;13.132;2024-02-04T02:39:04;7.40;99.90
7159;DHT22;63175;52.374;13.132;2024-02-04T02:41:38;7.40;99.90
7159;DHT22;63175;52.374;13.132;2024-02-04T02:44:07;7.30;99.90
7159;DHT22;63175;52.374;13.132;2024-02-04T02:46:35;7.30;99.90
7159;DHT22;63175;52.374;13.132;2024-02-04T02:49:02;7.30;99.90
7159;DHT22;63175;52.374;13.132;2024-02-04T02:51:29;7.30;99.90
7159;DHT22;63175;52.374;13.132;2024-02-04T02:53:56;7.30;99.90
7159;DHT22;63175;52.374;13.132;2024-02-04T02:56:23;7.20;99.90
7159;DHT22;63175;52.374;13.132;2024-02-04T02:58:51;7.30;99.90
7159;DHT22;63175;52.374;13.132;2024-02-04T03:01:18;7.30;99.90
7159;DHT22;63175;52.374;13.132;2024-02-04T03:03:45;7.20;99.90
7159;DHT22;63175;52.374;13.132;2024-02-04T03:06:12;7.30;99.90
7159;DHT22;63175;52.374;13.132;2024-02-04T03:08:38;7.30;99.90
7159;DHT22;63175;52.374;13.132;2024-02-04T03:11:05;7.30;99.90
7159;DHT22;63175;52.374;13.132;2024-02-04T03:13:32;7.20;99.90
7159;DHT22;63175;52.374;13.132;2024-02-04T03:16:00;7.30;99.90
7159;DHT22;63175;52.374;13.132;2024-02-04T03:18:27;7.20;99.90
7159;DHT22;63175;52.374;13.132;2024-02-04T03:20:54;7.20;99.90
7159;DHT22;63175;52.374;13.132;2024-02-04T03:23:21;7.20;99.90
7159;DHT22;63175;52.374;13.132;2024-02-04T03:25:48;7.20;99.90
7159;DHT22;63175;52.374;13.132;2024-02-04T03:28:14;7.20;99.90
7159;DHT22;63175;52.374;13.132;2024-02-04T03:30:41;7.20;99.90
7159;DHT22;63175;52.374;13.132;2024-02-04T03:33:09;7.20;99.90
7159;DHT22;63175;52.374;13.132;2024-02-04T03:35:36;7.20;99.90
7159;DHT22;63175;52.374;13.132;2024-02-04T03:38:03;7.20;99.90
7159;DHT22;63175;52.374;13.132;2024-02-04T03:40:30;7.20;99.90
7159;DHT22;63175;52.374;13.132;2024-02-04T03:42:57;7.20;99.90
7159;DHT22;63175;52.374;13.132;2024-02-04T03:45:24;7.20;99.90
7159;DHT22;63175;52.374;13.132;2024-02-04T03:47:50;7.20;99.90
7159;DHT22;63175;52.374;13.132;2024-02-04T03:50:19;7.10;99.90
7159;DHT22;63175;52.374;13.132;2024-02-04T03:52:45;7.10;99.90
7159;DHT22;63175;52.374;13.132;2024-02-04T03:55:12;7.10;99.90
7159;DHT22;63175;52.374;13.132;2024-02-04T03:57:39;7.10;99.90
7159;DHT22;63175;52.374;13.132;2024-02-04T04:00:08;7.10;99.90
7159;DHT22;63175;52.374;13.132;2024-02-04T04:02:35;7.00;99.90
7159;DHT22;63175;52.374;13.132;2024-02-04T04:05:02;7.00;99.90
7159;DHT22;63175;52.374;13.132;2024-02-04T04:07:30;6.90;99.90
7159;DHT22;63175;52.374;13.132;2024-02-04T04:09:57;6.90;99.90
7159;DHT22;63175;52.374;13.132;2024-02-04T04:12:24;6.90;99.90
7159;DHT22;63175;52.374;13.132;2024-02-04T04:14:51;6.90;99.90
7159;DHT22;63175;52.374;13.132;2024-02-04T04:17:18;6.90;99.90
7159;DHT22;63175;52.374;13.132;2024-02-04T04:19:45;6.90;99.90
7159;DHT22;63175;52.374;13.132;2024-02-04T04:22:12;6.80;99.90
7159;DHT22;63175;52.374;13.132;2024-02-04T04:24:40;6.80;99.90
7159;DHT22;63175;52.374;13.132;2024-02-04T04:27:07;6.80;99.90
7159;DHT22;63175;52.374;13.132;2024-02-04T04:29:34;6.80;99.90
7159;DHT22;63175;52.374;13.132;2024-02-04T04:32:01;6.70;99.90
7159;DHT22;63175;52.374;13.132;2024-02-04T04:34:27;6.70;99.90
7159;DHT22;63175;52.374;13.132;2024-02-04T04:36:54;6.70;99.90
7159;DHT22;63175;52.374;13.132;2024-02-04T04:39:21;6.70;99.90
7159;DHT22;63175;52.374;13.132;2024-02-04T04:41:49;6.70;99.90
7159;DHT22;63175;52.374;13.132;2024-02-04T04:44:16;6.70;99.90
7159;DHT22;63175;52.374;13.132;2024-02-04T04:46:43;6.60;99.90
7159;DHT22;63175;52.374;13.132;2024-02-04T04:49:10;6.60;99.90
7159;DHT22;63175;52.374;13.132;2024-02-04T04:51:36;6.60;99.90
7159;DHT22;63175;52.374;13.132;2024-02-04T04:54:03;6.60;99.90
7159;DHT22;63175;52.374;13.132;2024-02-04T04:56:30;6.60;99.90
7159;DHT22;63175;52.374;13.132;2024-02-04T04:59:06;6.60;99.90
7159;DHT22;63175;52.374;13.132;2024-02-04T05:01:33;6.60;99.90
7159;DHT22;63175;52.374;13.132;2024-02-04T05:04:00;6.60;99.90
7159;DHT22;63175;52.374;13.132;2024-02-04T05:06:27;6.60;99.90
7159;DHT22;63175;52.374;13.132;2024-02-04T05:08:53;6.60;99.90
7159;DHT22;63175;52.374;13.132;2024-02-04T05:11:20;6.60;99.90
7159;DHT22;63175;52.374;13.132;2024-02-04T05:13:47;6.60;99.90
7159;DHT22;63175;52.374;13.132;2024-02-04T05:16:15;6.60;99.90
7159;DHT22;63175;52.374;13.132;2024-02-04T05:18:42;6.60;99.90
7159;DHT22;63175;52.374;13.132;2024-02-04T05:21:09;6.60;99.90
7159;DHT22;63175;52.374;13.132;2024-02-04T05:23:36;6.60;99.90
7159;DHT22;63175;52.374;13.132;2024-02-04T05:26:03;6.60;99.90
7159;DHT22;63175;52.374;13.132;2024-02-04T05:28:31;6.60;99.90
7159;DHT22;63175;52.374;13.132;2024-02-04T05:30:58;6.60;99.90
7159;DHT22;63175;52.374;13.132;2024-02-04T05:33:26;6.60;99.90
7159;DHT22;63175;52.374;13.132;2024-02-04T05:35:53;6.60;99.90
7159;DHT22;63175;52.374;13.132;2024-02-04T05:38:21;6.60;99.90
7159;DHT22;63175;52.374;13.132;2024-02-04T05:40:48;6.60;99.90
7159;DHT22;63175;52.374;13.132;2024-02-04T05:43:14;6.60;99.90
7159;DHT22;63175;52.374;13.132;2024-02-04T05:45:41;6.60;99.90
7159;DHT22;63175;52.374;13.132;2024-02-04T05:48:08;6.60;99.90
7159;DHT22;63175;52.374;13.132;2024-02-04T05:50:37;6.60;99.90
7159;DHT22;63175;52.374;13.132;2024-02-04T05:53:03;6.70;99.90
7159;DHT22;63175;52.374;13.132;2024-02-04T05:55:31;6.70;99.90
7159;DHT22;63175;52.374;13.132;2024-02-04T05:57:57;6.70;99.90
7159;DHT22;63175;52.374;13.132;2024-02-04T06:00:24;6.70;99.90
7159;DHT22;63175;52.374;13.132;2024-02-04T06:02:52;6.80;99.90
7159;DHT22;63175;52.374;13.132;2024-02-04T06:05:18;6.80;99.90
7159;DHT22;63175;52.374;13.132;2024-02-04T06:07:47;6.80;99.90
7159;DHT22;63175;52.374;13.132;2024-02-04T06:10:13;6.80;99.90
7159;DHT22;63175;52.374;13.132;2024-02-04T06:12:40;6.80;99.90
7159;DHT22;63175;52.374;13.132;2024-02-04T06:15:12;6.90;99.90
7159;DHT22;63175;52.374;13.132;2024-02-04T06:17:40;6.90;99.90
7159;DHT22;63175;52.374;13.132;2024-02-04T06:20:07;6.90;99.90
7159;DHT22;63175;52.374;13.132;2024-02-04T06:22:34;6.90;99.90
7159;DHT22;63175;52.374;13.132;2024-02-04T06:25:03;6.90;99.90
7159;DHT22;63175;52.374;13.132;2024-02-04T06:27:30;6.90;99.90
7159;DHT22;63175;52.374;13.132;2024-02-04T06:29:57;6.90;99.90
7159;DHT22;63175;52.374;13.132;2024-02-04T06:32:24;6.90;99.90
7159;DHT22;63175;52.374;13.132;2024-02-04T06:34:51;6.90;99.90
7159;DHT22;63175;52.374;13.132;2024-02-04T06:37:21;7.00;99.90
7159;DHT22;63175;52.374;13.132;2024-02-04T06:39:47;7.00;99.90
7159;DHT22;63175;52.374;13.132;2024-02-04T06:42:17;7.00;99.90
7159;DHT22;63175;52.374;13.132;2024-02-04T06:44:44;7.00;99.90
7159;DHT22;63175;52.374;13.132;2024-02-04T06:47:11;7.00;99.90
7159;DHT22;63175;52.374;13.132;2024-02-04T06:49:39;7.10;99.90
7159;DHT22;63175;52.374;13.132;2024-02-04T06:52:07;7.10;99.90
7159;DHT22;63175;52.374;13.132;2024-02-04T06:54:34;7.10;99.90
7159;DHT22;63175;52.374;13.132;2024-02-04T06:57:00;7.10;99.90
7159;DHT22;63175;52.374;13.132;2024-02-04T06:59:29;7.10;99.90
7159;DHT22;63175;52.374;13.132;2024-02-04T07:01:55;7.10;99.90
7159;DHT22;63175;52.374;13.132;2024-02-04T07:04:22;7.10;99.90
7159;DHT22;63175;52.374;13.132;2024-02-04T07:06:49;7.10;99.90
7159;DHT22;63175;52.374;13.132;2024-02-04T07:09:17;7.20;99.90
7159;DHT22;63175;52.374;13.132;2024-02-04T07:11:44;7.20;99.90
7159;DHT22;63175;52.374;13.132;2024-02-04T07:14:11;7.20;99.90
7159;DHT22;63175;52.374;13.132;2024-02-04T07:16:39;7.20;99.90
7159;DHT22;63175;52.374;13.132;2024-02-04T07:19:06;7.30;99.90
7159;DHT22;63175;52.374;13.132;2024-02-04T07:21:33;7.30;99.90
7159;DHT22;63175;52.374;13.132;2024-02-04T07:24:00;7.30;99.90
7159;DHT22;63175;52.374;13.132;2024-02-04T07:26:27;7.30;99.90
7159;DHT22;63175;52.374;13.132;2024-02-04T07:28:54;7.30;99.90
7159;DHT22;63175;52.374;13.132;2024-02-04T07:31:21;7.30;99.90
7159;DHT22;63175;52.374;13.132;2024-02-04T07:33:49;7.30;99.90
7159;DHT22;63175;52.374;13.132;2024-02-04T07:36:16;7.30;99.90
7159;DHT22;63175;52.374;13.132;2024-02-04T07:38:43;7.30;99.90
7159;DHT22;63175;52.374;13.132;2024-02-04T07:41:13;7.30;99.90
7159;DHT22;63175;52.374;13.132;2024-02-04T07:43:40;7.30;99.90
7159;DHT22;63175;52.374;13.132;2024-02-04T07:46:07;7.30;99.90
7159;DHT22;63175;52.374;13.132;2024-02-04T07:48:34;7.40;99.90
7159;DHT22;63175;52.374;13.132;2024-02-04T07:51:03;7.40;99.90
7159;DHT22;63175;52.374;13.132;2024-02-04T07:53:30;7.40;99.90
7159;DHT22;63175;52.374;13.132;2024-02-04T07:55:56;7.40;99.90
7159;DHT22;63175;52.374;13.132;2024-02-04T07:58:23;7.40;99.90
7159;DHT22;63175;52.374;13.132;2024-02-04T08:00:51;7.50;99.90
7159;DHT22;63175;52.374;13.132;2024-02-04T08:03:18;7.50;99.90
7159;DHT22;63175;52.374;13.132;2024-02-04T08:05:45;7.50;99.90
7159;DHT22;63175;52.374;13.132;2024-02-04T08:08:13;7.60;99.90
7159;DHT22;63175;52.374;13.132;2024-02-04T08:10:40;7.60;99.90
7159;DHT22;63175;52.374;13.132;2024-02-04T08:13:07;7.70;99.90
7159;DHT22;63175;52.374;13.132;2024-02-04T08:15:34;7.70;99.90
7159;DHT22;63175;52.374;13.132;2024-02-04T08:18:01;7.80;99.90
7159;DHT22;63175;52.374;13.132;2024-02-04T08:20:28;7.80;99.90
7159;DHT22;63175;52.374;13.132;2024-02-04T08:22:55;7.90;99.90
7159;DHT22;63175;52.374;13.132;2024-02-04T08:25:23;7.90;99.90
7159;DHT22;63175;52.374;13.132;2024-02-04T08:27:50;8.00;99.90
7159;DHT22;63175;52.374;13.132;2024-02-04T08:30:17;8.00;99.90
7159;DHT22;63175;52.374;13.132;2024-02-04T08:32:44;8.00;99.90
7159;DHT22;63175;52.374;13.132;2024-02-04T08:35:11;8.00;99.90
7159;DHT22;63175;52.374;13.132;2024-02-04T08:37:38;8.00;99.90
7159;DHT22;63175;52.374;13.132;2024-02-04T08:40:06;8.00;99.90
7159;DHT22;63175;52.374;13.132;2024-02-04T08:42:35;7.90;99.90
7159;DHT22;63175;52.374;13.132;2024-02-04T08:45:02;8.00;99.90
7159;DHT22;63175;52.374;13.132;2024-02-04T08:47:29;8.00;99.90
7159;DHT22;63175;52.374;13.132;2024-02-04T08:49:56;8.00;99.90
7159;DHT22;63175;52.374;13.132;2024-02-04T08:52:23;8.00;99.90
7159;DHT22;63175;52.374;13.132;2024-02-04T08:54:50;8.00;99.90
7159;DHT22;63175;52.374;13.132;2024-02-04T08:57:17;8.00;99.90
7159;DHT22;63175;52.374;13.132;2024-02-04T08:59:45;8.00;99.90
7159;DHT22;63175;52.374;13.132;2024-02-04T09:02:12;8.00;99.90
7159;DHT22;63175;52.374;13.132;2024-02-04T09:04:39;8.00;99.90
7159;DHT22;63175;52.374;13.132;2024-02-04T09:07:07;8.00;99.90
7159;DHT22;63175;52.374;13.132;2024-02-04T09:09:33;8.10;99.90
7159;DHT22;63175;52.374;13.132;2024-02-04T09:12:00;8.00;99.90
7159;DHT22;63175;52.374;13.132;2024-02-04T09:14:27;8.10;99.90
7159;DHT22;63175;52.374;13.132;2024-02-04T09:16:55;8.10;99.90
7159;DHT22;63175;52.374;13.132;2024-02-04T09:19:22;8.20;99.90
7159;DHT22;63175;52.374;13.132;2024-02-04T09:21:50;8.20;99.90
7159;DHT22;63175;52.374;13.132;2024-02-04T09:24:16;8.20;99.90
7159;DHT22;63175;52.374;13.132;2024-02-04T09:26:43;8.30;99.90
7159;DHT22;63175;52.374;13.132;2024-02-04T09:29:10;8.30;99.90
7159;DHT22;63175;52.374;13.132;2024-02-04T09:31:37;8.30;99.90
7159;DHT22;63175;52.374;13.132;2024-02-04T09:34:05;8.40;99.90
7159;DHT22;63175;52.374;13.132;2024-02-04T09:36:32;8.40;99.90
7159;DHT22;63175;52.374;13.132;2024-02-04T09:38:59;8.50;99.90
7159;DHT22;63175;52.374;13.132;2024-02-04T09:41:26;8.60;99.90
7159;DHT22;63175;52.374;13.132;2024-02-04T09:43:53;8.60;99.90
7159;DHT22;63175;52.374;13.132;2024-02-04T09:46:20;8.70;99.90
7159;DHT22;63175;52.374;13.132;2024-02-04T09:48:49;8.80;99.90
7159;DHT22;63175;52.374;13.132;2024-02-04T09:51:19;8.90;99.90
7159;DHT22;63175;52.374;13.132;2024-02-04T09:53:49;9.00;99.90
7159;DHT22;63175;52.374;13.132;2024-02-04T09:56:18;9.00;99.90
7159;DHT22;63175;52.374;13.132;2024-02-04T09:58:45;9.00;99.90
7159;DHT22;63175;52.374;13.132;2024-02-04T10:01:12;9.00;99.90
7159;DHT22;63175;52.374;13.132;2024-02-04T10:03:41;9.00;99.90
7159;DHT22;63175;52.374;13.132;2024-02-04T10:06:08;9.10;99.90
7159;DHT22;63175;52.374;13.132;2024-02-04T10:08:37;9.10;99.90
7159;DHT22;63175;52.374;13.132;2024-02-04T10:11:04;9.20;99.90
7159;DHT22;63175;52.374;13.132;2024-02-04T10:13:42;9.20;99.90
7159;DHT22;63175;52.374;13.132;2024-02-04T10:16:09;9.20;99.90
7159;DHT22;63175;52.374;13.132;2024-02-04T10:18:36;9.30;99.90
7159;DHT22;63175;52.374;13.132;2024-02-04T10:21:03;9.40;99.90
7159;DHT22;63175;52.374;13.132;2024-02-04T10:23:30;9.40;99.90
7159;DHT22;63175;52.374;13.132;2024-02-04T10:25:59;9.40;99.90
7159;DHT22;63175;52.374;13.132;2024-02-04T10:28:26;9.40;99.90
7159;DHT22;63175;52.374;13.132;2024-02-04T10:30:53;9.50;99.90
7159;DHT22;63175;52.374;13.132;2024-02-04T10:33:20;9.50;99.90
7159;DHT22;63175;52.374;13.132;2024-02-04T10:35:47;9.50;99.90
7159;DHT22;63175;52.374;13.132;2024-02-04T10:38:14;9.50;99.90
7159;DHT22;63175;52.374;13.132;2024-02-04T10:40:41;9.50;99.90
7159;DHT22;63175;52.374;13.132;2024-02-04T10:43:10;9.40;99.90
7159;DHT22;63175;52.374;13.132;2024-02-04T10:45:39;9.40;99.90
7159;DHT22;63175;52.374;13.132;2024-02-04T10:48:10;9.30;99.90
7159;DHT22;63175;52.374;13.132;2024-02-04T10:50:38;9.30;99.90
7159;DHT22;63175;52.374;13.132;2024-02-04T10:53:05;9.30;99.90
7159;DHT22;63175;52.374;13.132;2024-02-04T10:55:40;9.20;99.90
7159;DHT22;63175;52.374;13.132;2024-02-04T10:58:10;9.20;99.90
7159;DHT22;63175;52.374;13.132;2024-02-04T11:00:40;9.30;99.90
7159;DHT22;63175;52.374;13.132;2024-02-04T11:03:07;9.20;99.90
7159;DHT22;63175;52.374;13.132;2024-02-04T11:05:36;9.20;99.90
7159;DHT22;63175;52.374;13.132;2024-02-04T11:08:04;9.20;99.90
7159;DHT22;63175;52.374;13.132;2024-02-04T11:10:32;9.20;99.90
7159;DHT22;63175;52.374;13.132;2024-02-04T11:12:59;9.20;99.90
7159;DHT22;63175;52.374;13.132;2024-02-04T11:15:35;9.20;99.90
7159;DHT22;63175;52.374;13.132;2024-02-04T11:18:25;9.20;99.90
7159;DHT22;63175;52.374;13.132;2024-02-04T11:21:31;9.20;99.90
7159;DHT22;63175;52.374;13.132;2024-02-04T11:24:12;9.20;99.90
7159;DHT22;63175;52.374;13.132;2024-02-04T11:26:43;9.20;99.90
7159;DHT22;63175;52.374;13.132;2024-02-04T11:29:10;9.20;99.90
7159;DHT22;63175;52.374;13.132;2024-02-04T11:31:40;9.20;99.90
7159;DHT22;63175;52.374;13.132;2024-02-04T11:34:08;9.20;99.90
7159;DHT22;63175;52.374;13.132;2024-02-04T11:36:38;9.20;99.90
7159;DHT22;63175;52.374;13.132;2024-02-04T11:39:11;9.20;99.90
7159;DHT22;63175;52.374;13.132;2024-02-04T11:41:44;9.20;99.90
7159;DHT22;63175;52.374;13.132;2024-02-04T11:44:12;9.20;99.90
7159;DHT22;63175;52.374;13.132;2024-02-04T11:46:46;9.20;99.90
7159;DHT22;63175;52.374;13.132;2024-02-04T11:49:14;9.20;99.90
7159;DHT22;63175;52.374;13.132;2024-02-04T11:51:45;9.20;99.90
7159;DHT22;63175;52.374;13.132;2024-02-04T11:54:12;9.20;99.90
7159;DHT22;63175;52.374;13.132;2024-02-04T11:56:41;9.30;99.90
7159;DHT22;63175;52.374;13.132;2024-02-04T11:59:08;9.20;99.90
7159;DHT22;63175;52.374;13.132;2024-02-04T12:01:35;9.20;99.90
7159;DHT22;63175;52.374;13.132;2024-02-04T12:04:10;9.20;99.90
7159;DHT22;63175;52.374;13.132;2024-02-04T12:06:39;9.20;99.90
7159;DHT22;63175;52.374;13.132;2024-02-04T12:09:08;9.20;99.90
7159;DHT22;63175;52.374;13.132;2024-02-04T12:11:35;9.20;99.90
7159;DHT22;63175;52.374;13.132;2024-02-04T12:14:04;9.20;99.90
7159;DHT22;63175;52.374;13.132;2024-02-04T12:16:32;9.10;99.90
7159;DHT22;63175;52.374;13.132;2024-02-04T12:19:00;9.10;99.90
7159;DHT22;63175;52.374;13.132;2024-02-04T12:21:30;9.10;99.90
7159;DHT22;63175;52.374;13.132;2024-02-04T12:23:58;9.00;99.90
7159;DHT22;63175;52.374;13.132;2024-02-04T12:26:25;9.00;99.90
7159;DHT22;63175;52.374;13.132;2024-02-04T12:28:52;9.00;99.90
7159;DHT22;63175;52.374;13.132;2024-02-04T12:31:21;9.00;99.90
7159;DHT22;63175;52.374;13.132;2024-02-04T12:33:52;9.10;99.90
7159;DHT22;63175;52.374;13.132;2024-02-04T12:36:20;9.00;99.90
7159;DHT22;63175;52.374;13.132;2024-02-04T12:38:52;9.00;99.90
7159;DHT22;63175;52.374;13.132;2024-02-04T12:41:19;9.00;99.90
7159;DHT22;63175;52.374;13.132;2024-02-04T12:43:49;9.10;99.90
7159;DHT22;63175;52.374;13.132;2024-02-04T12:46:16;9.10;99.90
7159;DHT22;63175;52.374;13.132;2024-02-04T12:48:44;9.10;99.90
7159;DHT22;63175;52.374;13.132;2024-02-04T12:51:11;9.10;99.90
7159;DHT22;63175;52.374;13.132;2024-02-04T12:53:37;9.10;99.90
7159;DHT22;63175;52.374;13.132;2024-02-04T12:56:06;9.10;99.90
7159;DHT22;63175;52.374;13.132;2024-02-04T12:58:42;9.20;99.90
7159;DHT22;63175;52.374;13.132;2024-02-04T13:01:09;9.10;99.90
7159;DHT22;63175;52.374;13.132;2024-02-04T13:03:36;9.20;99.90
7159;DHT22;63175;52.374;13.132;2024-02-04T13:06:03;9.10;99.90
7159;DHT22;63175;52.374;13.132;2024-02-04T13:08:30;9.10;99.90
7159;DHT22;63175;52.374;13.132;2024-02-04T13:10:57;9.10;99.90
7159;DHT22;63175;52.374;13.132;2024-02-04T13:13:25;9.10;99.90
7159;DHT22;63175;52.374;13.132;2024-02-04T13:15:54;9.10;99.90
7159;DHT22;63175;52.374;13.132;2024-02-04T13:18:21;9.10;99.90
7159;DHT22;63175;52.374;13.132;2024-02-04T13:20:48;9.10;99.90
7159;DHT22;63175;52.374;13.132;2024-02-04T13:23:15;9.00;99.90
7159;DHT22;63175;52.374;13.132;2024-02-04T13:25:42;9.00;99.90
7159;DHT22;63175;52.374;13.132;2024-02-04T13:28:10;9.00;99.90
7159;DHT22;63175;52.374;13.132;2024-02-04T13:30:39;9.00;99.90
7159;DHT22;63175;52.374;13.132;2024-02-04T13:33:06;9.00;99.90
7159;DHT22;63175;52.374;13.132;2024-02-04T13:35:34;9.00;99.90
7159;DHT22;63175;52.374;13.132;2024-02-04T13:38:01;9.00;99.90
7159;DHT22;63175;52.374;13.132;2024-02-04T13:40:27;9.00;99.90
7159;DHT22;63175;52.374;13.132;2024-02-04T13:42:55;9.00;99.90
7159;DHT22;63175;52.374;13.132;2024-02-04T13:45:21;9.00;99.90
7159;DHT22;63175;52.374;13.132;2024-02-04T13:47:50;9.00;99.90
7159;DHT22;63175;52.374;13.132;2024-02-04T13:50:17;8.90;99.90
7159;DHT22;63175;52.374;13.132;2024-02-04T13:52:44;8.90;99.90
7159;DHT22;63175;52.374;13.132;2024-02-04T13:55:10;9.00;99.90
7159;DHT22;63175;52.374;13.132;2024-02-04T13:57:37;9.00;99.90
7159;DHT22;63175;52.374;13.132;2024-02-04T14:00:05;9.00;99.90
7159;DHT22;63175;52.374;13.132;2024-02-04T14:02:33;9.00;99.90
7159;DHT22;63175;52.374;13.132;2024-02-04T14:05:01;9.00;99.90
7159;DHT22;63175;52.374;13.132;2024-02-04T14:07:28;9.00;99.90
7159;DHT22;63175;52.374;13.132;2024-02-04T14:09:55;9.00;99.90
7159;DHT22;63175;52.374;13.132;2024-02-04T14:12:22;9.00;99.90
7159;DHT22;63175;52.374;13.132;2024-02-04T14:14:49;8.90;99.90
7159;DHT22;63175;52.374;13.132;2024-02-04T14:17:16;8.90;99.90
7159;DHT22;63175;52.374;13.132;2024-02-04T14:19:43;8.90;99.90
7159;DHT22;63175;52.374;13.132;2024-02-04T14:22:15;9.00;99.90
7159;DHT22;63175;52.374;13.132;2024-02-04T14:24:43;8.90;99.90
7159;DHT22;63175;52.374;13.132;2024-02-04T14:27:11;8.90;99.90
7159;DHT22;63175;52.374;13.132;2024-02-04T14:29:38;8.90;99.90
7159;DHT22;63175;52.374;13.132;2024-02-04T14:32:05;8.90;99.90
7159;DHT22;63175;52.374;13.132;2024-02-04T14:34:32;8.90;99.90
7159;DHT22;63175;52.374;13.132;2024-02-04T14:36:59;8.90;99.90
7159;DHT22;63175;52.374;13.132;2024-02-04T14:39:27;9.00;99.90
7159;DHT22;63175;52.374;13.132;2024-02-04T14:41:56;8.90;99.90
7159;DHT22;63175;52.374;13.132;2024-02-04T14:44:23;8.90;99.90
7159;DHT22;63175;52.374;13.132;2024-02-04T14:46:50;8.90;99.90
7159;DHT22;63175;52.374;13.132;2024-02-04T14:49:17;8.90;99.90
7159;DHT22;63175;52.374;13.132;2024-02-04T14:51:44;8.90;99.90
7159;DHT22;63175;52.374;13.132;2024-02-04T14:54:10;8.90;99.90
7159;DHT22;63175;52.374;13.132;2024-02-04T14:56:39;8.90;99.90
7159;DHT22;63175;52.374;13.132;2024-02-04T14:59:09;8.90;99.90
7159;DHT22;63175;52.374;13.132;2024-02-04T15:01:36;8.90;99.90
7159;DHT22;63175;52.374;13.132;2024-02-04T15:04:02;8.90;99.90
7159;DHT22;63175;52.374;13.132;2024-02-04T15:06:30;8.90;99.90
7159;DHT22;63175;52.374;13.132;2024-02-04T15:08:57;9.00;99.90
7159;DHT22;63175;52.374;13.132;2024-02-04T15:11:25;8.90;99.90
7159;DHT22;63175;52.374;13.132;2024-02-04T15:13:53;8.90;99.90
7159;DHT22;63175;52.374;13.132;2024-02-04T15:16:21;8.90;99.90
7159;DHT22;63175;52.374;13.132;2024-02-04T15:18:48;8.90;99.90
7159;DHT22;63175;52.374;13.132;2024-02-04T15:21:16;8.90;99.90
7159;DHT22;63175;52.374;13.132;2024-02-04T15:23:43;8.90;99.90
7159;DHT22;63175;52.374;13.132;2024-02-04T15:26:11;8.90;99.90
7159;DHT22;63175;52.374;13.132;2024-02-04T15:28:38;8.90;99.90
7159;DHT22;63175;52.374;13.132;2024-02-04T15:31:08;8.90;99.90
7159;DHT22;63175;52.374;13.132;2024-02-04T15:33:35;8.90;99.90
7159;DHT22;63175;52.374;13.132;2024-02-04T15:36:02;8.90;99.90
7159;DHT22;63175;52.374;13.132;2024-02-04T15:38:29;8.90;99.90
7159;DHT22;63175;52.374;13.132;2024-02-04T15:40:56;8.90;99.90
7159;DHT22;63175;52.374;13.132;2024-02-04T15:43:23;8.90;99.90
7159;DHT22;63175;52.374;13.132;2024-02-04T15:45:50;8.90;99.90
7159;DHT22;63175;52.374;13.132;2024-02-04T15:48:21;8.90;99.90